Time;durP1;ratioP1;P1;durP2;ratioP2;P2;SDS_P1;SDS_P2;PMS_P1;PMS_P2;Temp;Humidity;BMP_temperature;BMP_pressure;BME280_temperature;BME280_humidity;BME280_pressure;Samples;Min_cycle;Max_cycle;Signal;HPM_P1;HPM_P2
2023/11/24 00:01:15;;;;;;;10.95;4.90;;;;;;;;;;10549328;27;20051;-75
2023/11/24 00:06:19;;;;;;;7.45;2.88;;;;;;;;;;10522654;27;20043;-76
2023/11/24 00:11:24;;;;;;;5.72;2.50;;;;;;;;;;10530968;28;20043;-76
2023/11/24 00:16:28;;;;;;;9.13;3.83;;;;;;;;;;10531575;28;20039;-75
2023/11/24 00:21:32;;;;;;;6.82;3.22;;;;;;;;;;10533416;27;20275;-75
2023/11/24 00:26:36;;;;;;;8.30;2.67;;;;;;;;;;10534945;27;20067;-75
2023/11/24 00:31:39;;;;;;;4.82;2.45;;;;;;;;;;10550003;27;20047;-76
2023/11/24 00:36:42;;;;;;;7.15;3.95;;;;;;;;;;10531532;28;20058;-76
2023/11/24 00:41:46;;;;;;;4.55;2.20;;;;;;;;;;10534472;28;20146;-75
2023/11/24 00:46:49;;;;;;;5.13;1.55;;;;;;;;;;10551650;28;20047;-77
2023/11/24 00:51:52;;;;;;;4.30;2.50;;;;;;;;;;10534185;28;20401;-76
2023/11/24 00:56:56;;;;;;;4.00;1.50;;;;;;;;;;10533889;28;20048;-76
2023/11/24 01:01:59;;;;;;;2.78;1.67;;;;;;;;;;10533559;28;20043;-76
2023/11/24 01:07:03;;;;;;;3.97;2.00;;;;;;;;;;10518052;28;20708;-76
2023/11/24 01:12:08;;;;;;;2.55;1.52;;;;;;;;;;10511403;28;20036;-76
2023/11/24 01:17:11;;;;;;;3.35;1.67;;;;;;;;;;10549823;28;20516;-75
2023/11/24 01:22:15;;;;;;;5.15;2.67;;;;;;;;;;10535017;28;20090;-74
2023/11/24 01:27:19;;;;;;;2.83;1.65;;;;;;;;;;10515564;28;20075;-74
2023/11/24 01:32:22;;;;;;;5.03;2.00;;;;;;;;;;10550070;28;20206;-75
2023/11/24 01:37:25;;;;;;;5.68;1.67;;;;;;;;;;10532919;28;20044;-76
2023/11/24 01:42:30;;;;;;;3.77;1.93;;;;;;;;;;10535097;28;20051;-74
2023/11/24 01:47:33;;;;;;;3.70;2.30;;;;;;;;;;10537856;28;20050;-75
2023/11/24 01:52:35;;;;;;;3.10;1.80;;;;;;;;;;10550047;28;20430;-74
2023/11/24 01:57:41;;;;;;;3.40;1.95;;;;;;;;;;10552789;28;20040;-75
2023/11/24 02:02:44;;;;;;;3.15;1.80;;;;;;;;;;10556142;27;20054;-76
2023/11/24 02:07:47;;;;;;;4.17;2.33;;;;;;;;;;10524288;28;20175;-74
2023/11/24 02:12:52;;;;;;;5.57;1.47;;;;;;;;;;10541510;27;20067;-74
2023/11/24 02:17:55;;;;;;;3.25;1.92;;;;;;;;;;10541285;27;20047;-74
2023/11/24 02:23:00;;;;;;;3.85;1.83;;;;;;;;;;10540251;27;20154;-73
2023/11/24 02:28:03;;;;;;;4.75;2.78;;;;;;;;;;10534957;27;20032;-73
2023/11/24 02:33:07;;;;;;;4.75;2.30;;;;;;;;;;10534453;28;22896;-73
2023/11/24 02:38:12;;;;;;;4.25;1.95;;;;;;;;;;10549591;27;20040;-73
2023/11/24 02:43:15;;;;;;;;;;;;;;;;;;10539031;27;20180;-74
2023/11/24 02:48:18;;;;;;;4.60;2.58;;;;;;;;;;10554407;28;20048;-74
2023/11/24 02:53:22;;;;;;;5.82;1.98;;;;;;;;;;10550416;27;20047;-74
2023/11/24 02:58:26;;;;;;;4.28;2.33;;;;;;;;;;10520556;27;20077;-75
2023/11/24 03:03:29;;;;;;;4.68;2.38;;;;;;;;;;10528341;27;20047;-74
2023/11/24 03:08:33;;;;;;;4.50;2.50;;;;;;;;;;10536362;28;20040;-74
2023/11/24 03:13:37;;;;;;;5.55;2.78;;;;;;;;;;10554534;28;20557;-74
2023/11/24 03:18:40;;;;;;;5.35;2.92;;;;;;;;;;10531874;28;20116;-75
2023/11/24 03:23:45;;;;;;;5.25;3.42;;;;;;;;;;10552720;27;20042;-74
2023/11/24 03:28:48;;;;;;;3.13;1.77;;;;;;;;;;10552838;27;20067;-74
2023/11/24 03:33:51;;;;;;;4.70;3.00;;;;;;;;;;10565344;27;20496;-75
2023/11/24 03:38:55;;;;;;;4.53;1.80;;;;;;;;;;10549870;27;20442;-74
2023/11/24 03:43:59;;;;;;;4.65;2.55;;;;;;;;;;10554556;27;21359;-74
2023/11/24 03:49:02;;;;;;;5.88;2.92;;;;;;;;;;10537837;27;20046;-75
2023/11/24 03:54:07;;;;;;;4.30;2.10;;;;;;;;;;10537076;28;20123;-74
2023/11/24 03:59:10;;;;;;;4.72;2.30;;;;;;;;;;10550502;27;20504;-74
2023/11/24 04:04:13;;;;;;;6.30;2.60;;;;;;;;;;10548040;27;20083;-74
2023/11/24 04:09:17;;;;;;;4.55;2.25;;;;;;;;;;10533785;28;20296;-74
2023/11/24 04:14:20;;;;;;;2.97;1.65;;;;;;;;;;10551484;27;20059;-76
2023/11/24 04:19:23;;;;;;;4.70;2.50;;;;;;;;;;10536661;27;20032;-76
2023/11/24 04:24:27;;;;;;;3.67;1.48;;;;;;;;;;10532106;28;20481;-75
2023/11/24 04:29:31;;;;;;;3.42;1.65;;;;;;;;;;10554520;27;20048;-75
2023/11/24 04:34:33;;;;;;;2.40;1.52;;;;;;;;;;10535525;27;20095;-74
2023/11/24 04:39:39;;;;;;;3.83;1.90;;;;;;;;;;10534313;28;20037;-73
2023/11/24 04:44:43;;;;;;;1.75;1.10;;;;;;;;;;10568406;27;20052;-74
2023/11/24 04:49:46;;;;;;;2.85;1.63;;;;;;;;;;10521714;27;20512;-74
2023/11/24 04:54:51;;;;;;;2.75;1.42;;;;;;;;;;10553728;28;20581;-74
2023/11/24 04:59:54;;;;;;;2.80;1.88;;;;;;;;;;10549872;27;20489;-73
2023/11/24 05:04:57;;;;;;;2.75;1.65;;;;;;;;;;10530015;28;20064;-73
2023/11/24 05:10:03;;;;;;;2.50;1.70;;;;;;;;;;10532544;28;20081;-74
2023/11/24 05:15:08;;;;;;;1.38;0.95;;;;;;;;;;10549533;28;20067;-75
2023/11/24 05:20:12;;;;;;;2.70;1.45;;;;;;;;;;10529901;28;20031;-74
2023/11/24 05:25:16;;;;;;;2.75;1.60;;;;;;;;;;10530229;28;20109;-75
2023/11/24 05:30:19;;;;;;;2.10;1.52;;;;;;;;;;10533174;28;20130;-74
2023/11/24 05:35:22;;;;;;;2.40;1.75;;;;;;;;;;10540096;27;20123;-74
2023/11/24 05:40:29;;;;;;;4.05;1.90;;;;;;;;;;10539442;27;20781;-75
2023/11/24 05:45:34;;;;;;;3.47;2.00;;;;;;;;;;10555488;28;20587;-75
2023/11/24 05:50:38;;;;;;;3.40;1.55;;;;;;;;;;10571721;27;20075;-75
2023/11/24 05:55:43;;;;;;;2.75;1.58;;;;;;;;;;10554422;27;20722;-75
2023/11/24 06:00:46;;;;;;;3.60;1.95;;;;;;;;;;10551511;27;20565;-76
2023/11/24 06:05:49;;;;;;;2.60;1.10;;;;;;;;;;10538586;28;20415;-74
2023/11/24 06:10:53;;;;;;;3.10;1.65;;;;;;;;;;10556616;27;20044;-75
2023/11/24 06:15:56;;;;;;;;;;;;;;;;;;10558132;27;20488;-75
2023/11/24 06:21:01;;;;;;;3.10;1.60;;;;;;;;;;10554010;27;20665;-74
2023/11/24 06:26:09;;;;;;;3.65;1.70;;;;;;;;;;10548475;27;21960;-75
2023/11/24 06:31:14;;;;;;;3.25;1.92;;;;;;;;;;10549843;27;20047;-74
2023/11/24 06:36:17;;;;;;;2.53;1.42;;;;;;;;;;10548684;27;20127;-74
2023/11/24 06:41:21;;;;;;;3.97;2.30;;;;;;;;;;10517237;27;20351;-74
2023/11/24 06:46:26;;;;;;;4.47;2.50;;;;;;;;;;10537670;27;20047;-74
2023/11/24 06:51:29;;;;;;;4.93;2.13;;;;;;;;;;10521078;28;20035;-74
2023/11/24 06:56:34;;;;;;;5.60;2.10;;;;;;;;;;10533587;27;20048;-73
2023/11/24 07:01:38;;;;;;;5.35;2.60;;;;;;;;;;10553685;27;20145;-73
2023/11/24 07:06:41;;;;;;;6.22;3.17;;;;;;;;;;10513074;27;20055;-72
2023/11/24 07:11:47;;;;;;;6.45;2.92;;;;;;;;;;10553713;27;20070;-73
2023/11/24 07:16:50;;;;;;;5.85;2.47;;;;;;;;;;10554923;27;20376;-73
2023/11/24 07:21:54;;;;;;;6.43;2.35;;;;;;;;;;10526692;27;20054;-74
2023/11/24 07:26:59;;;;;;;4.28;1.88;;;;;;;;;;10535098;27;20570;-74
2023/11/24 07:32:03;;;;;;;4.50;2.00;;;;;;;;;;10528994;27;20532;-75
2023/11/24 07:37:06;;;;;;;6.05;2.00;;;;;;;;;;10548781;27;20075;-75
2023/11/24 07:42:11;;;;;;;5.77;1.23;;;;;;;;;;10552348;27;20047;-75
2023/11/24 07:47:14;;;;;;;2.72;1.00;;;;;;;;;;10529991;28;20163;-75
2023/11/24 07:52:17;;;;;;;3.38;0.93;;;;;;;;;;10527812;27;20117;-75
2023/11/24 07:57:24;;;;;;;4.47;0.82;;;;;;;;;;10530089;28;20550;-75
2023/11/24 08:02:30;;;;;;;4.93;1.30;;;;;;;;;;10530420;27;20535;-74
2023/11/24 08:07:33;;;;;;;4.95;1.20;;;;;;;;;;10530297;27;20252;-75
2023/11/24 08:12:37;;;;;;;5.22;0.88;;;;;;;;;;10527547;27;20130;-75
2023/11/24 08:17:40;;;;;;;;;;;;;;;;;;10551098;27;20146;-74
2023/11/24 08:22:43;;;;;;;4.60;1.13;;;;;;;;;;10546158;27;19924;-74
2023/11/24 08:27:48;;;;;;;2.73;0.93;;;;;;;;;;10510462;27;20040;-75
2023/11/24 08:32:51;;;;;;;1.40;0.70;;;;;;;;;;10545933;27;20054;-75
2023/11/24 08:37:54;;;;;;;6.50;0.90;;;;;;;;;;10550349;28;20154;-75
2023/11/24 08:42:59;;;;;;;4.55;1.00;;;;;;;;;;10522950;28;20619;-75
2023/11/24 08:48:03;;;;;;;4.25;1.23;;;;;;;;;;10527360;28;20048;-75
2023/11/24 08:53:06;;;;;;;1.23;0.75;;;;;;;;;;10526822;28;20071;-75
2023/11/24 08:58:11;;;;;;;4.55;0.98;;;;;;;;;;10542397;28;20085;-74
2023/11/24 09:03:13;;;;;;;;;;;;;;;;;;10523677;28;20404;-75
2023/11/24 09:08:16;;;;;;;0.98;0.60;;;;;;;;;;10545015;28;20033;-75
2023/11/24 09:13:23;;;;;;;4.50;0.88;;;;;;;;;;10514755;28;20327;-76
2023/11/24 09:18:26;;;;;;;3.63;1.10;;;;;;;;;;10550448;28;20047;-75
2023/11/24 09:23:29;;;;;;;1.88;1.13;;;;;;;;;;10545952;28;20048;-76
2023/11/24 09:28:33;;;;;;;7.47;1.55;;;;;;;;;;10512172;28;20428;-75
2023/11/24 09:33:40;;;;;;;6.30;1.52;;;;;;;;;;10547255;28;20447;-74
2023/11/24 09:38:44;;;;;;;9.70;1.70;;;;;;;;;;10545510;28;20048;-75
2023/11/24 09:43:48;;;;;;;2.58;1.10;;;;;;;;;;10530688;28;20047;-74
2023/11/24 09:48:53;;;;;;;3.28;1.48;;;;;;;;;;10545569;28;20054;-74
2023/11/24 09:53:55;;;;;;;;;;;;;;;;;;10526521;28;20186;-75
2023/11/24 09:59:00;;;;;;;5.88;1.20;;;;;;;;;;10547879;28;19924;-75
2023/11/24 10:04:05;;;;;;;7.80;1.60;;;;;;;;;;10523264;28;20345;-75
2023/11/24 10:09:10;;;;;;;3.78;1.00;;;;;;;;;;10561665;27;20560;-76
2023/11/24 10:14:17;;;;;;;4.40;0.88;;;;;;;;;;10511498;28;20062;-75
2023/11/24 10:19:21;;;;;;;3.53;1.20;;;;;;;;;;10553248;27;20056;-75
2023/11/24 10:24:26;;;;;;;3.30;1.17;;;;;;;;;;10559487;27;20040;-75
2023/11/24 10:29:30;;;;;;;3.27;0.90;;;;;;;;;;10568763;27;20046;-74
2023/11/24 10:34:33;;;;;;;1.70;0.90;;;;;;;;;;10518694;27;20512;-75
2023/11/24 10:39:39;;;;;;;2.95;1.02;;;;;;;;;;10551226;27;20071;-74
2023/11/24 10:44:44;;;;;;;3.83;0.88;;;;;;;;;;10561833;27;20051;-74
2023/11/24 10:49:53;;;;;;;7.15;1.30;;;;;;;;;;10548331;27;20047;-74
2023/11/24 10:55:00;;;;;;;5.72;1.60;;;;;;;;;;10531483;27;20046;-74
2023/11/24 11:00:20;;;;;;;2.78;0.60;;;;;;;;;;10512249;27;20143;-74
2023/11/24 11:05:26;;;;;;;4.80;1.13;;;;;;;;;;10549627;27;20080;-75
2023/11/24 11:10:36;;;;;;;0.75;0.68;;;;;;;;;;10531373;27;20090;-75
2023/11/24 11:15:43;;;;;;;0.82;0.57;;;;;;;;;;10549631;27;20092;-74
2023/11/24 11:20:46;;;;;;;2.53;0.65;;;;;;;;;;10518351;27;20043;-74
2023/11/24 11:25:53;;;;;;;1.73;0.83;;;;;;;;;;10530625;27;20127;-75
2023/11/24 11:31:19;;;;;;;3.45;1.00;;;;;;;;;;10545112;27;20318;-74
2023/11/24 11:36:25;;;;;;;0.98;0.80;;;;;;;;;;10544908;27;20062;-74
2023/11/24 11:41:49;;;;;;;1.73;1.00;;;;;;;;;;10527516;27;20384;-74
2023/11/24 11:52:36;;;;;;;3.35;1.05;;;;;;;;;;10527495;27;20393;-75
2023/11/24 11:57:42;;;;;;;3.33;0.82;;;;;;;;;;10525689;27;20492;-75
2023/11/24 12:02:48;;;;;;;2.80;0.43;;;;;;;;;;10530222;27;20076;-75
2023/11/24 12:07:58;;;;;;;1.77;0.80;;;;;;;;;;10546631;27;20176;-74
2023/11/24 12:13:04;;;;;;;2.30;0.50;;;;;;;;;;10548288;28;20393;-75
2023/11/24 12:18:13;;;;;;;1.88;0.47;;;;;;;;;;10564965;27;20375;-75
2023/11/24 12:23:18;;;;;;;0.43;0.30;;;;;;;;;;10530078;28;20116;-75
2023/11/24 12:28:23;;;;;;;2.30;0.50;;;;;;;;;;10533247;27;20128;-75
2023/11/24 12:33:28;;;;;;;2.05;0.60;;;;;;;;;;10532834;28;20119;-75
2023/11/24 12:38:34;;;;;;;1.55;0.45;;;;;;;;;;10528970;28;20055;-75
2023/11/24 12:43:37;;;;;;;2.15;0.60;;;;;;;;;;10544303;27;20046;-75
2023/11/24 12:48:41;;;;;;;2.47;0.80;;;;;;;;;;10548023;27;20084;-75
2023/11/24 12:53:46;;;;;;;1.60;0.80;;;;;;;;;;10527688;28;20063;-75
2023/11/24 12:58:50;;;;;;;1.30;0.70;;;;;;;;;;10528710;28;20039;-75
2023/11/24 13:03:53;;;;;;;3.60;1.08;;;;;;;;;;10546464;28;20496;-75
2023/11/24 13:08:59;;;;;;;1.73;0.90;;;;;;;;;;10546410;28;20047;-75
2023/11/24 13:14:03;;;;;;;0.57;0.40;;;;;;;;;;10541965;28;20202;-75
2023/11/24 13:19:06;;;;;;;1.55;0.60;;;;;;;;;;10545286;28;20512;-76
2023/11/24 13:24:14;;;;;;;0.57;0.50;;;;;;;;;;10544107;28;20044;-75
2023/11/24 13:29:18;;;;;;;0.38;0.38;;;;;;;;;;10546954;28;20039;-75
2023/11/24 13:34:21;;;;;;;2.55;1.10;;;;;;;;;;10540251;28;20051;-75
2023/11/24 13:39:29;;;;;;;1.13;0.47;;;;;;;;;;10530033;28;20140;-75
2023/11/24 13:44:34;;;;;;;1.65;0.40;;;;;;;;;;10544160;28;20063;-74
2023/11/24 13:49:40;;;;;;;1.17;0.57;;;;;;;;;;10526914;28;20047;-75
2023/11/24 13:54:45;;;;;;;1.77;0.70;;;;;;;;;;10552591;27;20922;-75
2023/11/24 13:59:48;;;;;;;0.35;0.35;;;;;;;;;;10552879;27;20100;-73
2023/11/24 14:04:54;;;;;;;0.40;0.30;;;;;;;;;;10556135;27;20042;-76
2023/11/24 14:09:58;;;;;;;0.65;0.60;;;;;;;;;;10548207;27;20064;-75
2023/11/24 14:15:04;;;;;;;1.20;0.45;;;;;;;;;;10567460;27;20518;-75
2023/11/24 14:20:10;;;;;;;0.75;0.55;;;;;;;;;;10531611;27;20048;-75
2023/11/24 14:25:14;;;;;;;2.40;0.90;;;;;;;;;;10531116;27;20118;-74
2023/11/24 14:30:18;;;;;;;1.23;0.60;;;;;;;;;;10550334;27;20089;-76
2023/11/24 14:35:21;;;;;;;1.17;0.60;;;;;;;;;;10529187;27;20138;-76
2023/11/24 14:40:27;;;;;;;0.20;0.20;;;;;;;;;;10522106;27;20079;-75
2023/11/24 14:45:33;;;;;;;0.30;0.30;;;;;;;;;;10513159;27;20140;-76
2023/11/24 14:50:36;;;;;;;0.60;0.40;;;;;;;;;;10533062;28;20042;-75
2023/11/24 14:55:40;;;;;;;0.60;0.50;;;;;;;;;;10532173;27;20050;-75
2023/11/24 15:00:45;;;;;;;2.72;0.80;;;;;;;;;;10549493;27;20039;-75
2023/11/24 15:05:54;;;;;;;1.48;0.60;;;;;;;;;;10552795;27;20075;-75
2023/11/24 15:11:04;;;;;;;2.50;0.85;;;;;;;;;;10535293;27;20043;-75
2023/11/24 15:16:12;;;;;;;2.63;0.80;;;;;;;;;;10568210;27;20812;-75
2023/11/24 15:21:28;;;;;;;0.90;0.70;;;;;;;;;;10562586;27;20117;-75
2023/11/24 15:26:36;;;;;;;3.00;0.85;;;;;;;;;;10548103;27;20523;-75
2023/11/24 15:31:41;;;;;;;2.67;0.85;;;;;;;;;;10530311;28;20064;-74
2023/11/24 15:36:45;;;;;;;1.95;1.00;;;;;;;;;;10553116;27;20040;-75
2023/11/24 15:41:51;;;;;;;1.98;1.10;;;;;;;;;;10551120;27;20425;-75
2023/11/24 15:46:57;;;;;;;1.42;0.73;;;;;;;;;;10548267;27;20052;-76
2023/11/24 15:52:02;;;;;;;1.73;0.93;;;;;;;;;;10528810;27;20044;-74
2023/11/24 15:57:08;;;;;;;2.28;1.00;;;;;;;;;;10548148;27;20054;-75
2023/11/24 16:02:14;;;;;;;2.90;1.05;;;;;;;;;;10549847;27;20052;-75
2023/11/24 16:07:21;;;;;;;3.83;0.90;;;;;;;;;;10544246;27;20043;-72
2023/11/24 16:12:32;;;;;;;2.70;1.08;;;;;;;;;;10528986;28;20130;-73
2023/11/24 16:17:35;;;;;;;6.28;1.10;;;;;;;;;;10568880;27;20131;-75
2023/11/24 16:22:38;;;;;;;2.63;1.02;;;;;;;;;;10554939;28;20051;-74
2023/11/24 16:27:42;;;;;;;1.58;1.05;;;;;;;;;;10556333;27;20449;-75
2023/11/24 16:32:45;;;;;;;;;;;;;;;;;;10554280;27;21383;-74
2023/11/24 16:37:48;;;;;;;1.35;0.90;;;;;;;;;;10554102;27;19927;-73
2023/11/24 16:42:53;;;;;;;2.58;0.95;;;;;;;;;;10550867;27;20051;-74
2023/11/24 16:47:56;;;;;;;2.58;1.00;;;;;;;;;;10549115;28;20043;-75
2023/11/24 16:52:59;;;;;;;3.83;1.00;;;;;;;;;;10526066;28;20405;-76
2023/11/24 16:58:04;;;;;;;1.80;1.00;;;;;;;;;;10562440;27;20175;-74
2023/11/24 17:03:11;;;;;;;0.40;0.25;;;;;;;;;;10534597;28;20047;-74
2023/11/24 17:08:15;;;;;;;0.22;0.20;;;;;;;;;;10534933;28;20039;-73
2023/11/24 17:13:19;;;;;;;2.97;0.40;;;;;;;;;;10533605;28;20498;-74
2023/11/24 17:18:22;;;;;;;0.10;0.10;;;;;;;;;;10565299;27;20044;-75
2023/11/24 17:23:25;;;;;;;0.40;0.35;;;;;;;;;;10552595;28;20044;-75
2023/11/24 17:28:31;;;;;;;0.32;0.20;;;;;;;;;;10538275;27;20104;-75
2023/11/24 17:33:35;;;;;;;0.50;0.50;;;;;;;;;;10559790;27;20040;-74
2023/11/24 17:38:38;;;;;;;;;;;;;;;;;;10560831;27;20060;-75
2023/11/24 17:43:42;;;;;;;1.95;1.10;;;;;;;;;;10555135;27;20031;-75
2023/11/24 17:48:45;;;;;;;3.38;1.27;;;;;;;;;;10556048;27;20156;-74
2023/11/24 17:53:48;;;;;;;2.33;1.42;;;;;;;;;;10542157;27;20588;-76
2023/11/24 17:58:55;;;;;;;2.78;1.45;;;;;;;;;;10568893;27;20100;-74
2023/11/24 18:03:57;;;;;;;3.15;1.50;;;;;;;;;;10540547;27;20386;-74
2023/11/24 18:09:01;;;;;;;3.80;1.70;;;;;;;;;;10541718;27;20080;-76
2023/11/24 18:14:09;;;;;;;2.13;1.20;;;;;;;;;;10539792;27;20420;-75
2023/11/24 18:19:12;;;;;;;2.45;1.23;;;;;;;;;;10542017;27;20038;-76
2023/11/24 18:24:16;;;;;;;4.60;1.90;;;;;;;;;;10561310;27;20036;-75
2023/11/24 18:29:20;;;;;;;2.37;1.43;;;;;;;;;;10538298;27;20044;-75
2023/11/24 18:34:27;;;;;;;3.38;1.92;;;;;;;;;;10573110;27;20101;-74
2023/11/24 18:39:31;;;;;;;4.30;1.83;;;;;;;;;;10542794;27;20113;-76
2023/11/24 18:44:35;;;;;;;4.05;2.08;;;;;;;;;;10539425;27;20038;-75
2023/11/24 18:49:38;;;;;;;4.32;1.58;;;;;;;;;;10555449;27;20055;-75
2023/11/24 18:54:41;;;;;;;4.25;1.80;;;;;;;;;;10558305;27;20511;-74
2023/11/24 18:59:48;;;;;;;5.53;1.73;;;;;;;;;;10542056;27;20068;-76
2023/11/24 19:04:51;;;;;;;5.22;2.33;;;;;;;;;;10553536;27;20127;-76
2023/11/24 19:09:56;;;;;;;4.43;2.10;;;;;;;;;;10539456;27;20039;-75
2023/11/24 19:15:00;;;;;;;6.57;2.53;;;;;;;;;;10553628;28;20066;-76
2023/11/24 19:20:03;;;;;;;4.53;2.47;;;;;;;;;;10559002;27;20105;-75
2023/11/24 19:25:08;;;;;;;4.18;2.25;;;;;;;;;;10550435;27;20162;-74
2023/11/24 19:30:14;;;;;;;4.20;2.03;;;;;;;;;;10544900;27;20515;-75
2023/11/24 19:35:17;;;;;;;3.13;1.60;;;;;;;;;;10558313;27;20057;-76
2023/11/24 19:40:20;;;;;;;2.13;1.50;;;;;;;;;;10552581;27;20046;-75
2023/11/24 19:45:42;;;;;;;6.20;2.50;;;;;;;;;;10556201;27;20540;-75
2023/11/24 19:50:48;;;;;;;5.53;2.67;;;;;;;;;;10549614;27;20146;-74
2023/11/24 19:55:51;;;;;;;;;;;;;;;;;;10558539;27;20040;-76
2023/11/24 20:00:55;;;;;;;5.25;2.30;;;;;;;;;;10549217;27;20519;-75
2023/11/24 20:05:59;;;;;;;7.70;2.05;;;;;;;;;;10565318;27;20046;-75
2023/11/24 20:11:02;;;;;;;5.95;2.05;;;;;;;;;;10537934;28;20228;-75
2023/11/24 20:16:06;;;;;;;5.10;1.90;;;;;;;;;;10560055;27;20129;-75
2023/11/24 20:21:10;;;;;;;4.03;2.40;;;;;;;;;;10548995;27;20815;-75
2023/11/24 20:26:13;;;;;;;7.93;2.63;;;;;;;;;;10551755;27;20048;-76
2023/11/24 20:31:16;;;;;;;5.65;1.77;;;;;;;;;;10558546;28;20582;-74
2023/11/24 20:36:21;;;;;;;5.13;2.07;;;;;;;;;;10564397;27;20039;-74
2023/11/24 20:41:28;;;;;;;5.57;2.10;;;;;;;;;;10534966;28;20055;-74
2023/11/24 20:46:31;;;;;;;2.97;1.38;;;;;;;;;;10552519;28;20032;-73
2023/11/24 20:51:36;;;;;;;3.65;2.10;;;;;;;;;;10535895;28;20035;-75
2023/11/24 20:56:39;;;;;;;;;;;;;;;;;;10551758;27;20059;-75
2023/11/24 21:01:42;;;;;;;2.63;1.35;;;;;;;;;;10552703;27;20003;-74
2023/11/24 21:06:46;;;;;;;4.22;1.95;;;;;;;;;;10540843;28;20472;-75
2023/11/24 21:11:49;;;;;;;2.38;1.13;;;;;;;;;;10553667;28;20056;-75
2023/11/24 21:16:54;;;;;;;1.42;0.88;;;;;;;;;;10521491;28;20696;-74
2023/11/24 21:21:58;;;;;;;1.77;1.33;;;;;;;;;;10527485;28;20067;-74
2023/11/24 21:27:02;;;;;;;5.40;1.63;;;;;;;;;;10548710;28;20044;-74
2023/11/24 21:32:06;;;;;;;7.03;1.63;;;;;;;;;;10534460;28;20108;-74
2023/11/24 21:37:10;;;;;;;5.53;1.33;;;;;;;;;;10510072;28;20325;-75
2023/11/24 21:42:14;;;;;;;1.73;0.82;;;;;;;;;;10527400;28;20039;-76
2023/11/24 21:47:17;;;;;;;7.20;1.17;;;;;;;;;;10550422;28;20042;-75
2023/11/24 21:52:21;;;;;;;1.57;1.00;;;;;;;;;;10566086;27;20035;-75
2023/11/24 21:57:24;;;;;;;;;;;;;;;;;;10522629;28;20077;-75
2023/11/24 22:02:27;;;;;;;4.47;1.38;;;;;;;;;;10547798;28;20022;-76
2023/11/24 22:07:33;;;;;;;1.98;0.82;;;;;;;;;;10528266;28;20632;-76
2023/11/24 22:12:36;;;;;;;7.50;1.20;;;;;;;;;;10545309;28;20058;-76
2023/11/24 22:17:42;;;;;;;3.60;1.10;;;;;;;;;;10557777;27;20052;-74
2023/11/24 22:22:47;;;;;;;7.00;1.50;;;;;;;;;;10516595;27;20051;-76
2023/11/24 22:27:51;;;;;;;4.23;0.93;;;;;;;;;;10551723;27;20511;-73
2023/11/24 22:32:54;;;;;;;3.30;0.90;;;;;;;;;;10534123;27;20100;-75
2023/11/24 22:37:59;;;;;;;4.80;1.42;;;;;;;;;;10538289;27;20039;-75
2023/11/24 22:43:03;;;;;;;2.72;1.13;;;;;;;;;;10535628;28;20044;-75
2023/11/24 22:48:09;;;;;;;3.33;1.00;;;;;;;;;;10555179;27;20066;-75
2023/11/24 22:53:14;;;;;;;4.22;1.23;;;;;;;;;;10555162;27;20051;-75
2023/11/24 22:58:18;;;;;;;3.37;1.10;;;;;;;;;;10536143;27;20435;-75
2023/11/24 23:03:21;;;;;;;6.53;1.27;;;;;;;;;;10554293;27;20131;-76
2023/11/24 23:08:26;;;;;;;1.57;0.87;;;;;;;;;;10551823;27;20044;-74
2023/11/24 23:13:29;;;;;;;3.45;1.33;;;;;;;;;;10548692;27;20752;-75
2023/11/24 23:18:34;;;;;;;4.60;1.47;;;;;;;;;;10540939;27;20058;-75
2023/11/24 23:23:39;;;;;;;3.90;1.20;;;;;;;;;;10533976;28;20070;-75
2023/11/24 23:28:42;;;;;;;4.73;1.57;;;;;;;;;;10555691;27;20044;-76
2023/11/24 23:33:45;;;;;;;3.40;1.43;;;;;;;;;;10537034;27;20051;-76
2023/11/24 23:38:50;;;;;;;6.57;1.60;;;;;;;;;;10550286;27;20475;-77
2023/11/24 23:43:54;;;;;;;4.40;1.60;;;;;;;;;;10551377;27;20043;-74
2023/11/24 23:48:57;;;;;;;2.17;1.23;;;;;;;;;;10528914;27;20564;-75
2023/11/24 23:54:02;;;;;;;2.97;1.20;;;;;;;;;;10535052;27;20047;-75
2023/11/24 23:59:05;;;;;;;2.53;1.40;;;;;;;;;;10536776;27;20187;-75
